• Join FlightAware (Why Join?)
  • Login
  • US Flag 
08:23AM EDT


 

Airport Tracker/Info


-or-


 

Live Flight TrackerFlight Track Log ✈ N288G ✈ 04-Sep-2013 ✈ KSLN - KDVO

Flight Track Log - Related Links

Times and Time Zones

All times are in EDT time to prevent confusion due to time zone crossing. See the N288G flight status page for this flight to view local times or setup timezone preferences in your user account.

Time Position Orientation Groundspeed Altitude Reporting Facility
EDT Latitude Longitude Course Direction KTS MPH feet Rate Location/Type
02:48PM 38.7486 -97.5903 120° Southeast 224 258 4,100  Level Kansas City Center
02:49PM 38.8147 -97.5717 12° North 259 298 5,700 1,800 Climbing Kansas City Center
02:50PM 38.8858 -97.6033 341° North 258 297 7,900 1,920 Climbing Kansas City Center
02:52PM 38.8000 -98.3905 270° West  Level FlightAware Approximate
02:52PM 38.9208 -97.6819 300° West 270 311 9,700  Level Kansas City Center
02:53PM 38.8008 -98.5137 274° West  Level FlightAware Approximate
02:53PM 38.9164 -97.7875 267° West 281 323 11,800  Level Kansas City Center
02:54PM 38.9131 -97.8697 267° West 283 326 13,300 1,740 Climbing Kansas City Center
02:55PM 38.9083 -97.9900 267° West 283 326 15,500 1,800 Climbing Kansas City Center
02:56PM 38.9033 -98.0903 266° West 282 325 17,100 1,260 Climbing Kansas City Center
02:57PM 38.8997 -98.1961 268° West 295 339 18,200 1,200 Climbing Kansas City Center
02:58PM 38.8947 -98.3064 267° West 308 354 19,700 1,320 Climbing Kansas City Center
02:59PM 38.8897 -98.4164 267° West 309 356 21,000 1,140 Climbing Kansas City Center
03:00PM 38.8842 -98.5564 267° West 326 375 22,100 1,020 Climbing Kansas City Center
03:01PM 38.8786 -98.6761 267° West 336 387 23,200 960 Climbing Kansas City Center
03:02PM 38.8728 -98.7986 267° West 344 396 24,200 960 Climbing Kansas City Center
03:03PM 38.8667 -98.9219 266° West 348 400 25,200 960 Climbing Kansas City Center
03:04PM 38.8606 -99.0469 266° West 351 404 26,200 960 Climbing Kansas City Center
03:05PM 38.8533 -99.1706 266° West 349 402 27,200 1,020 Climbing Kansas City Center
03:06PM 38.8464 -99.3214 267° West 353 406 28,400 1,020 Climbing Kansas City Center
03:07PM 38.8506 -99.4447 273° West 348 400 29,400 960 Climbing Kansas City Center
03:08PM 38.8511 -99.5742 270° West 349 402 30,400 960 Climbing Kansas City Center
03:09PM 38.8519 -99.6925 271° West 348 400 31,400 960 Climbing Kansas City Center
03:10PM 38.8528 -99.8292 270° West 346 398 32,500 960 Climbing Kansas City Center
03:11PM 38.8536 -99.9461 271° West 343 395 33,500 960 Climbing Kansas City Center
03:12PM 38.8544 -100.0844 270° West 347 399 34,600 960 Climbing Kansas City Center
03:13PM 38.8547 -100.2006 270° West 344 396 35,600 960 Climbing Kansas City Center
03:14PM 38.8558 -100.3356 271° West 342 394 36,700 960 Climbing Kansas City Center
03:15PM 38.8553 -100.4264 270° West 333 383 37,500 960 Climbing Denver Center
03:16PM 38.8553 -100.5594 270° West 334 384 38,600 900 Climbing Denver Center
03:17PM 38.8558 -100.6722 270° West 331 381 39,400 540 Climbing Denver Center
03:18PM 38.8550 -100.7681 269° West 334 384 39,800 480 Climbing Denver Center
03:19PM 38.8547 -100.9239 270° West 345 397 40,400 540 Climbing Denver Center
03:20PM 38.8539 -101.0639 270° West 351 404 41,000 540 Climbing Denver Center
03:21PM 38.8547 -101.1833 271° West 351 404 41,600 840 Climbing Denver Center
03:22PM 38.8539 -101.3178 270° West 339 390 42,800 660 Climbing Denver Center
03:23PM 38.8531 -101.4303 269° West 332 382 43,000 60 Climbing Denver Center
03:24PM 38.8514 -101.5667 269° West 342 394 43,000  Level Denver Center
03:25PM 38.8506 -101.6881 270° West 355 409 43,000  Level Denver Center
03:26PM 38.8497 -101.8331 270° West 363 418 43,000  Level Denver Center
03:28PM 38.8481 -101.9597 269° West 370 426 43,000  Level Denver Center
03:29PM 38.8475 -102.0875 270° West 374 430 43,000  Level Denver Center
03:30PM 38.8456 -102.2364 269° West 375 432 43,000  Level Denver Center
03:31PM 38.8433 -102.3653 269° West 378 435 43,000  Level Denver Center
03:32PM 38.8408 -102.5156 269° West 376 433 43,000  Level Denver Center
03:33PM 38.8386 -102.6439 269° West 377 434 43,000  Level Denver Center
03:34PM 38.8353 -102.8003 268° West 382 440 43,000  Level Denver Center
03:35PM 38.8339 -102.9086 269° West 382 440 43,000  Level Denver Center
03:36PM 38.8306 -103.0714 269° West 381 438 43,000  Level Denver Center
03:37PM 38.8281 -103.2075 269° West 381 438 43,000  Level Denver Center
03:38PM 38.8244 -103.3447 268° West 384 442 43,000  Level Denver Center
03:39PM 38.8217 -103.4861 269° West 384 442 43,000  Level Denver Center
03:40PM 38.8181 -103.6394 268° West 386 444 43,000  Level Denver Center
03:41PM 38.8161 -103.7692 269° West 384 442 43,000  Level Denver Center
03:42PM 38.7942 -103.9411 261° West 387 445 43,000  Level Denver Center
03:43PM 38.7539 -104.0844 250° West 385 443 43,000  Level Denver Center
03:44PM 38.7219 -104.2039 251° West 387 445 43,000  Level Denver Center
03:45PM 38.6878 -104.3350 252° West 389 448 43,000  Level Denver Center
03:46PM 38.6536 -104.4669 252° West 389 448 43,000  Level Denver Center
03:47PM 38.6133 -104.6247 252° West 388 447 43,000  Level Denver Center
03:48PM 38.5783 -104.7564 251° West 390 449 43,000  Level Denver Center
03:49PM 38.5408 -104.8842 249° West 386 444 43,000  Level Denver Center
03:50PM 38.5028 -105.0136 249° West 388 447 43,000  Level Denver Center
03:51PM 38.4658 -105.1414 250° West 386 444 43,000  Level Denver Center
03:53PM 38.4375 -105.2442 251° West 385 443 43,000  Level Denver Center
03:54PM 38.4031 -105.4331 257° West 391 450 43,000  Level Denver Center
03:55PM 38.3789 -105.5678 257° West 389 448 43,000  Level Denver Center
03:56PM 38.3542 -105.7028 257° West 391 450 43,000  Level Denver Center
03:57PM 38.3286 -105.8442 257° West 387 445 43,000  Level Denver Center
03:58PM 38.3047 -105.9736 257° West 392 451 43,000 240 Level Denver Center
03:59PM 38.2928 -106.1225 264° West 383 441 43,600 480 Climbing Denver Center
04:00PM 38.2994 -106.2461 274° West 375 432 44,000 420 Climbing Denver Center
04:01PM 38.3033 -106.3786 272° West 374 430 44,500 480 Climbing Denver Center
04:02PM 38.3069 -106.5264 272° West 366 421 45,000 240 Climbing Denver Center
04:03PM 38.3108 -106.6517 272° West 370 426 45,000  Level Denver Center
04:04PM 38.3147 -106.8006 272° West 375 432 45,000  Level Denver Center
04:05PM 38.3186 -106.9350 272° West 383 441 45,000  Level Denver Center
04:06PM 38.3297 -107.0714 276° West 385 443 45,000  Level Denver Center
04:07PM 38.3433 -107.2125 277° West 387 445 45,000  Level Denver Center
04:08PM 38.3533 -107.3417 276° West 385 443 45,000  Level Denver Center
04:09PM 38.3519 -107.4986 269° West 392 451 45,000  Level Denver Center
04:10PM 38.3533 -107.6306 271° West 391 450 45,000  Level Denver Center
04:11PM 38.3556 -107.7833 271° West 387 445 45,000  Level Denver Center
04:12PM 38.3586 -107.9375 271° West 389 448 45,000  Level Denver Center
04:13PM 38.3592 -108.0906 270° West 387 445 45,000  Level Denver Center
04:14PM 38.3608 -108.2233 271° West 390 449 45,000  Level Denver Center
04:15PM 38.3617 -108.3778 270° West 390 449 45,000  Level Denver Center
04:16PM 38.3631 -108.5100 271° West 389 448 45,000  Level Denver Center
04:18PM 38.3631 -108.6658 270° West 392 451 45,000  Level Denver Center
04:19PM 38.3642 -108.7972 271° West 388 447 45,000  Level Denver Center
04:20PM 38.3644 -108.9508 270° West 388 447 45,000  Level Denver Center
04:21PM 38.3644 -109.1044 270° West 388 447 45,000  Level Denver Center
04:22PM 38.3656 -109.2836 271° West 393 452 45,000  Level Denver Center
04:23PM 38.3661 -109.4383 270° West 392 451 45,000  Level Denver Center
04:24PM 38.3650 -109.5711 269° West 391 450 45,000  Level Denver Center
04:25PM 38.3633 -109.7039 269° West 391 450 45,000  Level Denver Center
04:26PM 38.3639 -109.8594 270° West 392 451 45,000  Level Denver Center
04:27PM 38.3628 -109.9694 269° West 389 448 45,000  Level Denver Center
04:28PM 38.3614 -110.1444 269° West 390 449 45,000  Level Denver Center
04:29PM 38.3603 -110.2764 269° West 389 448 45,000  Level Denver Center
04:30PM 38.3586 -110.4311 269° West 390 449 45,000  Level Denver Center
04:32PM 38.3572 -110.5619 269° West 387 445 45,000  Level Denver Center
04:33PM 38.3556 -110.7378 269° West 388 447 45,000  Level Denver Center
04:34PM 38.3539 -110.8686 269° West 388 447 45,000  Level Denver Center
04:35PM 38.3517 -111.0158 269° West 386 444 45,000  Level Denver Center
04:36PM 38.3489 -111.2086 269° West 388 447 45,000  Level Salt Lake Center
04:37PM 38.3475 -111.3719 269° West 387 445 45,000  Level Salt Lake Center
04:43PM 38.4387 -112.2350 269° West 395 455 45,000  Level FlightAware ADS-B
04:46PM 38.4537 -112.5850 273° West 396 456 45,000  Level FlightAware ADS-B
04:47PM 38.4587 -112.7010 273° West 396 456 45,000  Level FlightAware ADS-B
04:48PM 38.4663 -112.8780 273° West 394 453 45,000  Level FlightAware ADS-B
04:49PM 38.4691 -112.9490 273° West 389 448 45,000  Level FlightAware ADS-B
04:50PM 38.4736 -113.0503 273° West 389 448 45,000  Level Salt Lake Center
04:51PM 38.4803 -113.2128 273° West 386 444 45,000  Level Salt Lake Center
04:52PM 38.4856 -113.3464 273° West 381 438 45,000  Level Salt Lake Center
04:53PM 38.4906 -113.4775 273° West 376 433 45,000  Level Salt Lake Center
04:54PM 38.4947 -113.6094 272° West 375 432 45,000  Level Salt Lake Center
04:55PM 38.5000 -113.7397 273° West 372 428 45,000  Level Salt Lake Center
04:56PM 38.5042 -113.8708 272° West 372 428 45,000  Level Salt Lake Center
04:57PM 38.5092 -114.0303 272° West 375 432 45,000  Level Salt Lake Center
04:58PM 38.5131 -114.1636 272° West 377 434 45,000  Level Salt Lake Center
04:59PM 38.5181 -114.2981 273° West 381 438 45,000  Level Salt Lake Center
05:00PM 38.5192 -114.4319 271° West 380 437 45,000  Level Salt Lake Center
05:01PM 38.5097 -114.5647 265° West 377 434 45,000  Level Salt Lake Center
05:02PM 38.5008 -114.6981 265° West 378 435 45,000  Level Salt Lake Center
05:03PM 38.4831 -114.8281 260° West 374 430 45,000  Level Salt Lake Center
05:04PM 38.4553 -114.9814 257° West 371 427 45,000  Level Salt Lake Center
05:05PM 38.4308 -115.1050 256° West 364 419 45,000  Level Salt Lake Center
05:06PM 38.4067 -115.2303 256° West 365 420 45,000  Level Salt Lake Center
05:07PM 38.3811 -115.3489 255° West 362 417 45,000  Level Salt Lake Center
05:08PM 38.3528 -115.4703 253° West 360 414 45,000  Level Salt Lake Center
05:09PM 38.3261 -115.5944 255° West 362 417 45,000  Level Salt Lake Center
05:10PM 38.2975 -115.7442 256° West 363 418 45,000  Level Salt Lake Center
05:11PM 38.2750 -115.8689 257° West 362 417 45,000  Level Salt Lake Center
05:12PM 38.2525 -115.9936 257° West 362 417 45,000  Level Salt Lake Center
05:13PM 38.2503 -116.1242 269° West 367 422 45,000  Level Salt Lake Center
05:14PM 38.2447 -116.2500 267° West 360 414 45,000  Level Salt Lake Center
05:15PM 38.2375 -116.3772 266° West 360 414 45,000  Level Salt Lake Center
05:16PM 38.2308 -116.5050 266° West 363 418 45,000  Level Salt Lake Center
05:17PM 38.2222 -116.6608 266° West 367 422 45,000  Level Salt Lake Center
05:18PM 38.2147 -116.7911 266° West 369 425 45,000  Level Salt Lake Center
05:19PM 38.2078 -116.9194 266° West 366 421 45,000  Level Salt Lake Center
05:20PM 38.2017 -117.0483 267° West 367 422 45,000  Level Salt Lake Center
05:21PM 38.1933 -117.1844 266° West 370 426 45,000  Level Salt Lake Center
05:22PM 38.1825 -117.3322 265° West 385 443 45,000  Level Salt Lake Center
05:24PM 38.1639 -117.4575 259° West 369 425 45,000  Level Salt Lake Center
05:25PM 38.1464 -117.5844 260° West 367 422 45,000  Level Salt Lake Center
05:26PM 38.1289 -117.7111 260° West 365 420 45,000  Level Salt Lake Center
05:27PM 38.1117 -117.8381 260° West 366 421 45,000  Level Salt Lake Center
05:28PM 38.0908 -117.9894 260° West 365 420 45,000  Level Salt Lake Center
05:29PM 38.0719 -118.1147 259° West 363 418 45,000  Level Salt Lake Center
05:30PM 38.0539 -118.2381 260° West 357 411 45,000  Level Salt Lake Center
05:31PM 38.0364 -118.3622 260° West 359 413 45,000  Level Salt Lake Center
05:32PM 38.0183 -118.4867 260° West 359 413 45,000  Level Salt Lake Center
05:33PM 37.9964 -118.6336 259° West 355 409 45,000  Level Oakland Center
05:34PM 37.9772 -118.7567 259° West 355 409 45,000  Level Oakland Center
05:35PM 37.9553 -118.9031 259° West 353 406 45,000  Level Oakland Center
05:36PM 37.9378 -119.0272 260° West 356 410 45,000  Level Oakland Center
05:37PM 37.9186 -119.1536 259° West 360 414 45,000  Level Oakland Center
05:38PM 37.8997 -119.2775 259° West 359 413 45,000  Level Oakland Center
05:39PM 37.8806 -119.3989 259° West 354 407 45,000 -540 Level Oakland Center
05:40PM 37.8611 -119.5194 258° West 351 404 44,000 -1,020 Descending Oakland Center
05:41PM 37.8433 -119.6375 259° West 342 394 43,000 -1,020 Descending Oakland Center
05:42PM 37.8242 -119.7536 258° West 339 390 42,000 -960 Descending Oakland Center
05:43PM 37.8061 -119.8714 259° West 340 391 41,100 -1,020 Descending Oakland Center
05:44PM 37.7858 -119.9914 258° West 348 400 40,000 -1,080 Descending Oakland Center
05:45PM 37.7675 -120.1147 259° West 355 409 39,000 -1,380 Descending Oakland Center
05:46PM 37.7425 -120.2681 258° West 368 423 37,200 -1,800 Descending Oakland Center
05:47PM 37.7214 -120.3928 258° West 364 419 35,400 -2,040 Descending Oakland Center
05:53PM 37.6426 -121.1400 258° West 376 433 23,900 -2,040 Descending FlightAware ADS-B
05:54PM 37.6482 -121.2090 276° West 373 429 22,800 -2,040 Descending FlightAware ADS-B
05:54PM 37.6565 -121.3120 276° West 351 404 21,200 -1,980 Descending FlightAware ADS-B
05:55PM 37.6614 -121.3740 276° West 348 400 20,200 -1,200 Descending FlightAware ADS-B
05:55PM 37.6663 -121.4350 276° West 333 383 20,000 -240 Descending FlightAware ADS-B
05:56PM 37.6717 -121.5040 276° West 335 386 20,000  Level FlightAware ADS-B
05:57PM 37.6765 -121.5650 276° West 337 388 20,000 -600 Level FlightAware ADS-B
05:57PM 37.6811 -121.6260 275° West 336 387 19,400 -1,620 Descending FlightAware ADS-B
05:58PM 37.6859 -121.6900 275° West 340 391 18,300 -2,040 Descending FlightAware ADS-B
05:58PM 37.6905 -121.7510 275° West 339 390 17,300 -2,040 Descending FlightAware ADS-B
05:59PM 37.6952 -121.8130 275° West 337 388 16,200 -1,380 Descending FlightAware ADS-B
05:59PM 37.6995 -121.8710 275° West 329 379 15,900 -300 Descending FlightAware ADS-B
06:00PM 37.7040 -121.9310 275° West 319 367 15,900  Level FlightAware ADS-B
06:00PM 37.7082 -121.9870 275° West 314 361 15,900  Level FlightAware ADS-B
06:01PM 37.7124 -122.0420 276° West 313 360 15,900  Level FlightAware ADS-B
06:01PM 37.7167 -122.1000 275° West 312 359 15,900  Level FlightAware ADS-B
06:02PM 37.7214 -122.1640 275° West 310 357 15,900  Level FlightAware ADS-B
06:02PM 37.7266 -122.2090 278° West 315 362 15,900  Level FlightAware ADS-B
06:02PM 37.7294 -122.2170 294° West 318 366 15,900  Level FlightAware ADS-B
06:03PM 37.7480 -122.2430 312° West 328 377 15,900  Level FlightAware ADS-B
06:03PM 37.7838 -122.2810 320° Northwest 328 377 15,900  Level FlightAware ADS-B
06:04PM 37.8195 -122.3200 319° Northwest 329 379 15,900 -600 Level FlightAware ADS-B
06:04PM 37.8582 -122.3610 320° Northwest 330 380 15,300 -2,040 Descending FlightAware ADS-B
06:05PM 37.9002 -122.4060 320° Northwest 298 343 13,500 -2,640 Descending FlightAware ADS-B
06:05PM 37.9330 -122.4410 320° Northwest 265 305 12,200 -2,460 Descending FlightAware ADS-B
06:14PM 38.1333 -122.5500 351° North  Level FlightAware Approximate
06:15PM 38.1436 -122.5561 351° North  Level Estimated
06:16PM 38.1436 -122.5561 351° North  Level Estimated
06:17PM 38.1436 -122.5561 351° North  Level Estimated
06:18PM 38.1436 -122.5561 351° North  Level Estimated
06:19PM 38.1436 -122.5561 351° North  Level Estimated
06:20PM 38.1436 -122.5561 351° North  Level Estimated
06:21PM 38.1436 -122.5561 351° North  Level Estimated
06:22PM 38.1436 -122.5561 351° North  Level Estimated
06:23PM 38.1436 -122.5561 351° North  Level Estimated
06:24PM 38.1436 -122.5561 351° North  Level Estimated
06:25PM 38.1436 -122.5561 351° North  Level Estimated
06:26PM 38.1436 -122.5561 351° North  Level Estimated
06:27PM 38.1436 -122.5561 351° North  Level Estimated